Time;durP1;ratioP1;P1;durP2;ratioP2;P2;SDS_P1;SDS_P2;PMS_P1;PMS_P2;Temp;Humidity;BMP_temperature;BMP_pressure;BME280_temperature;BME280_humidity;BME280_pressure;Samples;Min_cycle;Max_cycle;Signal;HPM_P1;HPM_P2
2021/06/21 00:00:25;;;;;;;2.90;1.03;;;21.40;1.00;;;;;;4971083;28;20486;-81
2021/06/21 00:02:54;;;;;;;2.80;1.47;;;21.60;99.90;;;;;;4962336;28;21032;-78
2021/06/21 00:05:22;;;;;;;2.57;0.97;;;21.60;99.90;;;;;;4979284;28;20520;-81
2021/06/21 00:07:52;;;;;;;3.70;1.53;;;21.70;99.90;;;;;;4969126;28;20445;-82
2021/06/21 00:10:20;;;;;;;4.27;1.03;;;21.80;99.90;;;;;;4967055;28;20498;-83
2021/06/21 00:12:49;;;;;;;2.40;0.90;;;22.00;99.90;;;;;;4971734;28;20466;-82
2021/06/21 00:15:21;;;;;;;3.80;1.00;;;21.90;99.90;;;;;;4971740;28;20895;-81
2021/06/21 00:17:50;;;;;;;2.70;0.97;;;21.90;99.90;;;;;;4970769;28;20966;-82
2021/06/21 00:20:19;;;;;;;2.40;0.97;;;22.00;99.90;;;;;;4972041;28;20503;-83
2021/06/21 00:22:48;;;;;;;3.10;1.13;;;22.00;99.90;;;;;;4956240;28;20517;-81
2021/06/21 00:25:18;;;;;;;3.10;1.00;;;22.10;99.90;;;;;;4956404;28;20459;-81
2021/06/21 00:27:48;;;;;;;3.43;1.20;;;22.10;99.90;;;;;;4972363;28;20463;-81
2021/06/21 00:30:19;;;;;;;2.60;0.80;;;22.10;72.40;;;;;;4970059;28;20491;-81
2021/06/21 00:32:49;;;;;;;1.37;1.00;;;22.10;99.90;;;;;;4972740;28;20456;-81
2021/06/21 00:35:18;;;;;;;3.40;0.80;;;22.10;76.50;;;;;;4968293;28;20464;-82
2021/06/21 00:37:47;;;;;;;3.53;1.20;;;22.10;99.90;;;;;;4972359;28;20451;-82
2021/06/21 00:40:16;;;;;;;1.97;1.00;;;22.10;99.90;;;;;;4971423;28;20462;-80
2021/06/21 00:42:47;;;;;;;3.27;0.77;;;22.10;64.40;;;;;;4969101;28;21061;-82
2021/06/21 00:45:17;;;;;;;3.07;1.10;;;22.20;91.70;;;;;;4973659;28;20456;-80
2021/06/21 00:47:48;;;;;;;7.37;1.53;;;22.00;1.00;;;;;;4973284;28;20481;-80
2021/06/21 00:50:17;;;;;;;2.70;1.00;;;21.90;99.90;;;;;;4968522;28;20572;-77
2021/06/21 00:52:45;;;;;;;1.30;1.00;;;21.90;99.90;;;;;;4975156;28;20457;-81
2021/06/21 00:55:14;;;;;;;3.93;1.20;;;21.90;99.90;;;;;;4976153;28;20457;-82
2021/06/21 00:57:43;;;;;;;5.53;1.10;;;21.90;99.90;;;;;;4973914;28;20458;-80
2021/06/21 01:00:15;;;;;;;4.33;0.97;;;21.90;99.90;;;;;;4975471;28;20534;-82
2021/06/21 01:02:43;;;;;;;5.80;1.30;;;21.80;99.90;;;;;;4975265;28;20485;-81
2021/06/21 01:05:16;;;;;;;3.53;1.00;;;21.80;99.90;;;;;;4959608;28;20470;-83
2021/06/21 01:07:45;;;;;;;2.70;0.90;;;21.90;99.90;;;;;;4979737;28;20470;-81
2021/06/21 01:10:16;;;;;;;8.87;1.40;;;22.00;99.90;;;;;;4976979;28;20517;-81
2021/06/21 01:13:30;;;;;;;3.40;1.00;;;22.00;99.90;;;;;;4956267;29;20447;-81
2021/06/21 01:16:07;;;;;;;3.60;0.90;;;22.00;29.30;;;;;;4935158;28;20485;-82
2021/06/21 01:18:38;;;;;;;4.13;1.30;;;22.00;64.40;;;;;;4969576;28;20858;-80
2021/06/21 01:21:36;;;;;;;4.57;0.80;;;21.70;83.40;;;;;;4968615;28;21009;-81
2021/06/21 01:24:28;;;;;;;5.50;1.20;;;21.50;99.90;;;;;;4973830;28;20459;-81
2021/06/21 01:27:07;;;;;;;2.20;1.00;;;21.50;99.90;;;;;;4973891;28;20470;-82
2021/06/21 01:29:50;;;;;;;2.80;0.97;;;21.70;99.90;;;;;;4976391;28;20467;-82
2021/06/21 01:32:48;;;;;;;7.53;1.17;;;21.80;99.90;;;;;;4975585;28;20488;-83
2021/06/21 01:35:32;;;;;;;2.67;0.90;;;21.90;99.90;;;;;;4974965;28;20473;-81
2021/06/21 01:38:02;;;;;;;2.33;1.10;;;22.00;96.40;;;;;;4991651;28;20455;-82
2021/06/21 01:40:33;;;;;;;2.80;1.00;;;22.00;95.80;;;;;;4976567;28;20991;-81
2021/06/21 01:43:04;;;;;;;2.20;1.27;;;22.00;99.90;;;;;;4976319;28;20510;-81
2021/06/21 01:45:34;;;;;;;8.53;1.30;;;22.00;47.00;;;;;;4981872;28;20466;-81
2021/06/21 01:48:05;;;;;;;3.30;1.07;;;22.00;3.80;;;;;;4972465;28;20459;-81
2021/06/21 01:50:35;;;;;;;4.13;1.33;;;22.00;99.90;;;;;;4968485;28;20541;-79
2021/06/21 01:53:07;;;;;;;4.70;1.70;;;21.80;99.90;;;;;;4960502;28;20473;-82
2021/06/21 01:55:38;;;;;;;5.60;1.50;;;21.70;99.90;;;;;;4979754;28;20450;-81
2021/06/21 01:58:08;;;;;;;6.20;1.30;;;21.60;99.90;;;;;;4974139;28;20460;-82
2021/06/21 02:00:38;;;;;;;5.50;1.50;;;21.60;99.90;;;;;;4973394;28;20522;-82
2021/06/21 02:03:08;;;;;;;5.17;2.10;;;21.60;1.00;;;;;;4972790;28;20527;-82
2021/06/21 02:05:37;;;;;;;9.83;2.10;;;21.60;99.90;;;;;;4970081;28;20468;-80
2021/06/21 02:08:07;;;;;;;3.00;1.40;;;21.40;99.90;;;;;;4972508;28;21024;-81
2021/06/21 02:10:35;;;;;;;3.30;1.03;;;21.30;99.90;;;;;;4967135;28;20475;-81
2021/06/21 02:13:05;;;;;;;2.53;1.60;;;21.40;99.90;;;;;;4959173;28;20987;-80
2021/06/21 02:15:34;;;;;;;4.07;1.53;;;21.50;99.90;;;;;;4972398;28;20455;-82
2021/06/21 02:18:02;;;;;;;6.40;1.90;;;21.60;99.90;;;;;;4972739;28;20481;-81
2021/06/21 02:20:32;;;;;;;7.63;1.67;;;21.50;99.90;;;;;;4971191;28;20476;-81
2021/06/21 02:23:00;;;;;;;3.50;1.60;;;21.60;99.90;;;;;;4971847;28;20447;-81
2021/06/21 02:25:29;;;;;;;7.07;1.40;;;21.70;99.90;;;;;;4963556;28;20519;-81
2021/06/21 02:27:59;;;;;;;5.77;1.50;;;21.50;9.50;;;;;;4965972;28;20519;-81
2021/06/21 02:30:28;;;;;;;5.30;2.80;;;21.40;99.90;;;;;;4968942;28;20496;-81
2021/06/21 02:32:57;;;;;;;4.30;1.27;;;21.50;99.90;;;;;;4985949;28;20469;-81
2021/06/21 02:35:25;;;;;;;4.00;1.20;;;21.50;99.90;;;;;;4962271;28;20991;-80
2021/06/21 02:37:55;;;;;;;3.53;1.37;;;21.40;99.90;;;;;;4973298;28;20451;-81
2021/06/21 02:40:24;;;;;;;3.03;1.40;;;21.20;99.90;;;;;;4972113;28;20484;-80
2021/06/21 02:42:52;;;;;;;3.80;1.20;;;21.10;99.90;;;;;;4975634;28;20456;-82
2021/06/21 02:45:20;;;;;;;4.13;1.40;;;21.10;99.90;;;;;;4972154;28;20459;-82
2021/06/21 02:47:50;;;;;;;3.23;1.40;;;21.20;99.90;;;;;;4973437;28;20447;-81
2021/06/21 02:50:19;;;;;;;2.23;1.30;;;21.40;99.90;;;;;;4970130;28;20522;-82
2021/06/21 02:52:59;;;;;;;5.13;1.67;;;21.40;99.90;;;;;;4972371;28;21207;-81
2021/06/21 02:55:35;;;;;;;3.37;1.00;;;21.40;98.70;;;;;;4969927;28;20463;-81
2021/06/21 02:58:11;;;;;;;4.87;1.23;;;21.40;99.90;;;;;;4952026;28;20472;-82
2021/06/21 03:00:41;;;;;;;9.37;1.20;;;21.40;41.70;;;;;;4959743;28;21056;-82
2021/06/21 03:03:10;;;;;;;4.50;1.80;;;21.30;63.50;;;;;;4969757;28;20483;-81
2021/06/21 03:05:39;;;;;;;4.93;1.20;;;21.10;99.90;;;;;;4957993;28;20542;-82
2021/06/21 03:08:11;;;;;;;2.33;1.20;;;20.90;99.90;;;;;;4968132;28;20467;-81
2021/06/21 03:10:42;;;;;;;5.47;1.20;;;21.10;99.90;;;;;;4967358;28;20464;-80
2021/06/21 03:13:12;;;;;;;1.43;1.27;;;21.00;99.90;;;;;;4953140;29;20479;-81
2021/06/21 03:15:41;;;;;;;3.97;1.63;;;20.90;99.90;;;;;;4973346;28;20465;-81
2021/06/21 03:18:10;;;;;;;3.10;1.10;;;20.90;1.00;;;;;;4972883;28;20455;-80
2021/06/21 03:20:39;;;;;;;3.00;1.30;;;20.90;99.90;;;;;;4972288;28;20475;-80
2021/06/21 03:23:07;;;;;;;2.53;1.13;;;20.90;99.90;;;;;;4975776;28;20451;-80
2021/06/21 03:25:37;;;;;;;5.43;1.37;;;21.00;99.90;;;;;;4977851;28;20451;-80
2021/06/21 03:28:11;;;;;;;5.30;1.40;;;20.90;99.90;;;;;;4978662;28;20502;-79
2021/06/21 03:30:42;;;;;;;4.70;1.10;;;20.90;99.90;;;;;;4964435;28;20483;-80
2021/06/21 03:33:11;;;;;;;5.60;1.07;;;20.70;1.00;;;;;;4973481;28;20509;-81
2021/06/21 03:35:39;;;;;;;5.00;1.07;;;20.70;1.00;;;;;;4973070;28;20460;-81
2021/06/21 03:38:12;;;;;;;2.60;1.20;;;20.80;1.00;;;;;;4978046;28;20458;-80
2021/06/21 03:40:42;;;;;;;6.10;1.97;;;20.90;1.00;;;;;;4979131;28;20489;-79
2021/06/21 03:43:12;;;;;;;2.33;1.20;;;21.10;1.00;;;;;;4977587;28;20443;-81
2021/06/21 03:45:41;;;;;;;5.43;1.20;;;21.10;99.90;;;;;;4977732;28;20451;-82
2021/06/21 03:48:10;;;;;;;5.03;1.30;;;21.10;99.90;;;;;;4975963;28;20462;-81
2021/06/21 03:50:38;;;;;;;5.50;1.50;;;21.10;99.90;;;;;;4977748;28;20493;-81
2021/06/21 03:53:07;;;;;;;6.87;1.17;;;21.10;99.90;;;;;;4976208;28;20679;-80
2021/06/21 03:55:36;;;;;;;3.77;1.47;;;20.90;99.90;;;;;;4969824;28;20486;-80
2021/06/21 03:58:05;;;;;;;3.77;1.03;;;20.50;4.30;;;;;;4965519;28;20471;-80
2021/06/21 04:00:36;;;;;;;4.10;1.17;;;20.50;99.90;;;;;;4975242;28;20491;-80
2021/06/21 04:03:09;;;;;;;3.63;1.50;;;20.60;32.80;;;;;;4974407;28;20455;-80
2021/06/21 04:05:39;;;;;;;6.30;1.30;;;20.90;1.00;;;;;;4979107;28;20795;-80
2021/06/21 04:08:08;;;;;;;4.30;1.10;;;21.10;1.00;;;;;;4981521;28;20511;-81
2021/06/21 04:10:37;;;;;;;3.27;1.23;;;21.20;99.90;;;;;;4978383;28;20491;-79
2021/06/21 04:13:05;;;;;;;3.90;1.17;;;21.30;99.90;;;;;;4970996;28;20467;-79
2021/06/21 04:15:36;;;;;;;4.10;1.50;;;21.40;99.90;;;;;;4971662;28;20842;-80
2021/06/21 04:18:07;;;;;;;3.00;1.27;;;21.30;99.90;;;;;;4986792;28;21002;-79
2021/06/21 04:20:35;;;;;;;7.50;1.30;;;21.20;99.90;;;;;;4960826;28;20492;-78
2021/06/21 04:23:04;;;;;;;3.83;1.37;;;21.10;1.00;;;;;;4968080;28;20828;-79
2021/06/21 04:25:32;;;;;;;5.03;1.33;;;21.10;99.90;;;;;;4972553;28;20463;-80
2021/06/21 04:28:02;;;;;;;6.33;1.10;;;21.10;99.90;;;;;;4977815;28;20471;-80
2021/06/21 04:30:30;;;;;;;1.40;0.93;;;21.10;1.00;;;;;;4972933;28;20474;-80
2021/06/21 04:33:00;;;;;;;4.60;1.10;;;21.10;99.90;;;;;;4973245;28;20983;-81
2021/06/21 04:35:29;;;;;;;4.13;1.27;;;21.10;99.90;;;;;;4969806;28;20963;-82
2021/06/21 04:37:58;;;;;;;4.00;1.10;;;21.10;99.90;;;;;;4969330;28;20453;-80
2021/06/21 04:40:30;;;;;;;2.33;1.60;;;21.10;99.90;;;;;;4973251;28;20998;-78
2021/06/21 04:42:59;;;;;;;5.80;1.27;;;21.20;99.90;;;;;;4973644;28;20506;-79
2021/06/21 04:45:27;;;;;;;7.27;1.20;;;21.30;99.90;;;;;;4956998;28;20870;-80
2021/06/21 04:48:02;;;;;;;10.10;1.20;;;21.30;99.90;;;;;;4971869;28;20966;-80
2021/06/21 04:50:30;;;;;;;3.20;1.00;;;21.10;99.90;;;;;;4970551;28;20495;-80
2021/06/21 04:52:59;;;;;;;4.23;1.23;;;21.10;99.90;;;;;;4966584;28;20479;-82
2021/06/21 04:55:27;;;;;;;3.70;1.47;;;21.00;99.90;;;;;;4970336;28;21226;-80
2021/06/21 04:57:55;;;;;;;4.10;1.40;;;21.10;99.90;;;;;;4969926;28;20502;-79
2021/06/21 05:00:26;;;;;;;5.37;1.27;;;21.10;99.90;;;;;;4967139;28;21186;-67
2021/06/21 05:02:54;;;;;;;5.30;0.90;;;21.10;99.90;;;;;;4963602;28;20483;-69
2021/06/21 05:05:24;;;;;;;3.83;1.50;;;20.90;99.90;;;;;;4967306;28;20503;-70
2021/06/21 05:07:55;;;;;;;2.20;1.00;;;20.80;1.00;;;;;;4963986;28;20466;-70
2021/06/21 05:10:24;;;;;;;2.33;0.90;;;20.80;1.00;;;;;;4968396;28;20491;-70
2021/06/21 05:12:52;;;;;;;1.00;0.90;;;20.70;99.90;;;;;;4965189;28;20867;-68
2021/06/21 05:15:21;;;;;;;3.43;1.47;;;20.70;99.90;;;;;;4966392;28;20451;-69
2021/06/21 05:17:50;;;;;;;6.10;1.10;;;20.60;99.90;;;;;;4969287;28;20546;-69
2021/06/21 05:20:18;;;;;;;4.83;1.23;;;20.60;99.90;;;;;;4966025;28;20535;-69
2021/06/21 05:22:49;;;;;;;3.37;0.97;;;20.70;99.90;;;;;;4968503;28;20827;-69
2021/06/21 05:25:17;;;;;;;2.63;1.70;;;20.70;99.90;;;;;;4965674;28;20459;-70
2021/06/21 05:27:46;;;;;;;4.50;1.27;;;20.80;99.90;;;;;;4967624;28;20459;-71
2021/06/21 05:30:15;;;;;;;5.73;1.60;;;20.70;40.30;;;;;;4963941;28;20488;-69
2021/06/21 05:32:44;;;;;;;4.43;1.03;;;20.70;99.90;;;;;;4952059;28;20492;-79
2021/06/21 05:35:13;;;;;;;5.50;1.10;;;20.80;99.90;;;;;;4972892;28;20549;-81
2021/06/21 05:37:45;;;;;;;1.70;1.00;;;20.90;99.90;;;;;;4964759;28;20479;-78
2021/06/21 05:40:17;;;;;;;3.77;1.23;;;21.10;99.90;;;;;;4967156;28;20838;-80
2021/06/21 05:42:45;;;;;;;4.13;1.70;;;21.20;99.90;;;;;;4974284;28;20454;-79
2021/06/21 05:45:15;;;;;;;4.17;1.27;;;21.30;99.90;;;;;;4974103;28;20447;-80
2021/06/21 05:47:45;;;;;;;3.43;1.00;;;21.30;99.90;;;;;;4977052;28;20542;-81
2021/06/21 05:50:14;;;;;;;3.43;1.23;;;21.20;99.90;;;;;;4977532;28;20513;-82
2021/06/21 05:52:42;;;;;;;4.73;1.37;;;21.30;99.90;;;;;;4977296;28;21163;-79
2021/06/21 05:55:11;;;;;;;7.40;1.10;;;21.40;99.90;;;;;;4975785;28;20439;-79
2021/06/21 05:57:41;;;;;;;2.70;1.20;;;21.50;99.90;;;;;;4976118;28;20440;-80
2021/06/21 06:00:10;;;;;;;4.07;0.90;;;21.70;99.90;;;;;;4975376;28;20544;-81
2021/06/21 06:02:45;;;;;;;3.17;1.13;;;21.70;99.90;;;;;;4974750;28;20491;-79
2021/06/21 06:05:15;;;;;;;2.20;1.00;;;21.80;99.90;;;;;;4971050;28;20462;-79
2021/06/21 06:07:44;;;;;;;3.50;1.23;;;21.70;99.90;;;;;;4981536;28;20466;-78
2021/06/21 06:10:14;;;;;;;2.90;1.37;;;21.50;99.90;;;;;;4964974;28;20495;-81
2021/06/21 06:12:43;;;;;;;2.90;1.00;;;21.50;99.90;;;;;;4976771;28;20955;-81
2021/06/21 06:15:13;;;;;;;4.93;1.70;;;21.50;99.90;;;;;;4961705;28;21001;-82
2021/06/21 06:17:41;;;;;;;1.90;1.10;;;21.70;99.90;;;;;;4974290;28;20515;-81
2021/06/21 06:20:11;;;;;;;4.40;1.30;;;21.70;99.90;;;;;;4972974;28;20549;-81
2021/06/21 06:22:40;;;;;;;2.00;1.20;;;21.70;45.20;;;;;;4975586;28;20974;-82
2021/06/21 06:25:09;;;;;;;2.23;1.10;;;21.80;99.90;;;;;;4974902;28;20454;-81
2021/06/21 06:27:38;;;;;;;9.07;1.67;;;21.80;99.90;;;;;;4974053;28;20513;-82
2021/06/21 06:30:10;;;;;;;1.83;0.90;;;21.90;99.90;;;;;;4972982;28;20487;-81
2021/06/21 06:32:39;;;;;;;2.30;0.90;;;21.90;33.20;;;;;;4974313;28;20469;-81
2021/06/21 06:35:09;;;;;;;3.10;1.07;;;22.00;64.90;;;;;;4973844;28;21294;-81
2021/06/21 06:37:37;;;;;;;2.10;1.20;;;22.00;3.00;;;;;;4963452;28;21320;-82
2021/06/21 06:40:07;;;;;;;2.90;2.00;;;21.80;1.00;;;;;;4965775;28;20559;-81
2021/06/21 06:42:35;;;;;;;3.77;1.23;;;21.70;1.00;;;;;;4963215;28;20535;-81
2021/06/21 06:45:03;;;;;;;2.50;1.17;;;21.70;20.10;;;;;;4973309;28;20462;-82
2021/06/21 06:47:34;;;;;;;1.50;1.10;;;21.70;41.90;;;;;;4973738;28;20945;-80
2021/06/21 06:50:03;;;;;;;1.73;0.83;;;21.80;99.90;;;;;;4973484;28;20451;-80
2021/06/21 06:52:32;;;;;;;2.50;1.30;;;21.90;39.60;;;;;;4974492;28;20510;-81
2021/06/21 06:57:47;;;;;;;1.60;0.93;;;21.80;1.00;;;;;;4971698;28;20510;-81
2021/06/21 07:00:16;;;;;;;3.50;1.33;;;21.90;1.00;;;;;;4974997;28;20565;-80
2021/06/21 07:02:47;;;;;;;2.30;0.90;;;22.00;1.00;;;;;;4969042;28;20467;-82
2021/06/21 07:05:15;;;;;;;5.70;1.17;;;22.10;1.00;;;;;;4964015;28;20453;-81
2021/06/21 07:07:44;;;;;;;2.90;1.50;;;22.20;1.00;;;;;;4972195;28;20477;-80
2021/06/21 07:10:13;;;;;;;1.70;0.90;;;22.30;1.00;;;;;;4970506;28;20561;-82
2021/06/21 07:12:42;;;;;;;1.50;1.00;;;22.50;1.00;;;;;;4970091;28;20528;-81
2021/06/21 07:15:11;;;;;;;3.50;0.80;;;22.50;1.00;;;;;;4965072;28;20511;-82
2021/06/21 07:17:39;;;;;;;3.17;1.00;;;22.60;1.00;;;;;;4970153;28;20463;-82
2021/06/21 07:20:11;;;;;;;3.63;1.60;;;22.70;1.00;;;;;;4968140;28;20494;-82
2021/06/21 07:22:39;;;;;;;2.20;0.97;;;22.70;1.00;;;;;;4972776;28;20454;-79
2021/06/21 07:25:08;;;;;;;3.17;0.90;;;22.80;1.00;;;;;;4973153;28;20501;-82
2021/06/21 07:27:37;;;;;;;1.77;1.10;;;22.90;1.00;;;;;;4967346;28;20459;-82
2021/06/21 07:30:06;;;;;;;1.93;1.47;;;22.90;1.00;;;;;;4969221;28;20455;-82
2021/06/21 07:32:35;;;;;;;3.43;0.87;;;22.90;1.00;;;;;;4972036;28;20450;-82
2021/06/21 07:35:03;;;;;;;6.10;0.80;;;22.90;1.00;;;;;;4971909;28;20490;-81
2021/06/21 07:37:34;;;;;;;2.80;1.00;;;23.00;1.00;;;;;;4972699;28;20513;-81
2021/06/21 07:40:02;;;;;;;1.70;0.87;;;23.00;1.00;;;;;;4974335;28;20951;-82
2021/06/21 07:42:30;;;;;;;3.40;1.20;;;23.10;1.00;;;;;;4968810;28;21086;-80
2021/06/21 07:44:59;;;;;;;3.30;1.50;;;23.10;1.00;;;;;;4965725;28;20467;-81
2021/06/21 07:47:27;;;;;;;5.70;1.47;;;23.20;1.00;;;;;;4971085;28;20458;-82
2021/06/21 07:49:55;;;;;;;4.10;1.53;;;23.30;1.00;;;;;;4973236;28;20467;-81
2021/06/21 07:52:24;;;;;;;4.83;1.17;;;23.30;1.00;;;;;;4985112;28;20861;-80
2021/06/21 07:54:58;;;;;;;1.77;1.00;;;23.30;1.00;;;;;;4973699;28;21073;-80
2021/06/21 07:57:28;;;;;;;2.40;1.07;;;23.40;1.00;;;;;;4970058;28;20966;-81
2021/06/21 07:59:56;;;;;;;3.10;1.00;;;23.50;1.00;;;;;;4972457;28;20830;-82
2021/06/21 08:02:24;;;;;;;4.13;0.90;;;23.50;1.00;;;;;;4974411;28;20455;-80
2021/06/21 08:04:53;;;;;;;4.20;0.90;;;23.50;99.90;;;;;;4972008;28;20459;-81
2021/06/21 08:07:21;;;;;;;1.50;1.00;;;23.40;99.90;;;;;;4972883;28;20455;-82
2021/06/21 08:09:49;;;;;;;2.70;1.07;;;23.40;99.90;;;;;;4971355;28;20451;-81
2021/06/21 08:12:20;;;;;;;3.80;0.90;;;23.40;99.90;;;;;;4972110;28;20455;-81
2021/06/21 08:14:48;;;;;;;3.63;1.00;;;23.20;99.90;;;;;;4971021;28;20483;-80
2021/06/21 08:17:16;;;;;;;2.33;1.00;;;23.20;99.90;;;;;;4970186;28;20542;-80
2021/06/21 08:19:45;;;;;;;4.20;1.40;;;23.20;99.90;;;;;;4953729;29;20511;-80
2021/06/21 08:22:14;;;;;;;2.17;0.80;;;23.30;99.90;;;;;;4970200;28;21135;-82
2021/06/21 08:24:42;;;;;;;1.13;1.00;;;23.30;1.00;;;;;;4972931;28;20459;-82
2021/06/21 08:27:11;;;;;;;4.00;2.30;;;23.30;99.90;;;;;;4972092;28;20498;-82
2021/06/21 08:29:41;;;;;;;3.07;1.33;;;23.40;99.90;;;;;;4973183;28;20449;-81
2021/06/21 08:32:09;;;;;;;1.63;1.30;;;23.50;99.90;;;;;;4969746;28;20478;-82
2021/06/21 08:34:38;;;;;;;2.00;1.00;;;23.60;99.90;;;;;;4952685;28;20476;-82
2021/06/21 08:37:07;;;;;;;1.63;1.20;;;23.70;99.90;;;;;;4969126;28;20463;-82
2021/06/21 08:39:36;;;;;;;1.50;0.93;;;23.60;99.90;;;;;;4971429;28;20459;-82
2021/06/21 08:42:06;;;;;;;2.70;1.27;;;23.60;99.90;;;;;;4969729;28;20510;-82
2021/06/21 08:44:35;;;;;;;3.77;1.23;;;23.60;99.90;;;;;;4960850;28;20469;-81
2021/06/21 08:47:05;;;;;;;3.40;0.90;;;23.40;99.90;;;;;;4970033;28;20451;-81
2021/06/21 08:52:24;;;;;;;2.07;1.00;;;23.40;99.90;;;;;;4970724;28;20459;-82
2021/06/21 08:54:53;;;;;;;1.40;0.80;;;23.30;99.90;;;;;;4969549;28;20475;-82
2021/06/21 08:57:21;;;;;;;4.20;1.00;;;23.40;99.90;;;;;;4969244;28;20443;-82
2021/06/21 08:59:50;;;;;;;4.83;1.67;;;23.60;99.90;;;;;;4970329;28;21244;-81
2021/06/21 09:02:19;;;;;;;4.37;1.80;;;23.70;99.90;;;;;;4973127;28;20529;-82
2021/06/21 09:04:49;;;;;;;1.83;1.00;;;23.80;99.90;;;;;;4969611;28;20443;-83
2021/06/21 09:07:19;;;;;;;4.87;1.00;;;23.80;99.90;;;;;;4969097;28;20455;-81
2021/06/21 09:09:49;;;;;;;3.40;0.90;;;23.80;99.90;;;;;;4970385;28;20448;-80
2021/06/21 09:12:25;;;;;;;1.83;0.87;;;23.70;99.90;;;;;;4986666;28;20487;-80
2021/06/21 09:14:55;;;;;;;1.20;1.07;;;23.70;99.90;;;;;;4973456;28;20485;-81
2021/06/21 09:17:26;;;;;;;2.73;1.20;;;23.70;99.90;;;;;;4968303;28;20521;-82
2021/06/21 09:19:56;;;;;;;2.30;1.30;;;23.60;99.90;;;;;;4976296;28;20484;-81
2021/06/21 09:22:28;;;;;;;2.20;1.00;;;23.60;99.90;;;;;;4978976;28;20827;-80
2021/06/21 09:24:56;;;;;;;3.43;1.53;;;23.50;99.90;;;;;;4971596;28;20864;-81
2021/06/21 09:27:26;;;;;;;1.27;1.00;;;23.60;99.90;;;;;;4973214;28;21210;-81
2021/06/21 09:29:55;;;;;;;3.40;1.10;;;23.80;99.90;;;;;;4973080;28;20462;-81
2021/06/21 09:32:45;;;;;;;1.93;1.10;;;23.90;99.90;;;;;;4970290;28;20451;-81
2021/06/21 09:35:38;;;;;;;1.53;0.93;;;24.00;99.90;;;;;;4970486;28;20573;-81
2021/06/21 09:38:14;;;;;;;2.93;0.90;;;24.10;99.90;;;;;;4970200;28;20455;-81
2021/06/21 09:40:46;;;;;;;1.27;1.00;;;24.20;99.90;;;;;;4972789;28;20474;-82
2021/06/21 09:43:26;;;;;;;2.97;1.13;;;24.40;99.90;;;;;;4970130;28;20958;-81
2021/06/21 09:46:10;;;;;;;3.47;1.10;;;24.40;99.90;;;;;;4973563;28;20459;-81
2021/06/21 09:48:42;;;;;;;1.33;1.20;;;24.40;99.90;;;;;;4972601;28;20436;-82
2021/06/21 09:51:29;;;;;;;2.33;1.30;;;24.40;99.90;;;;;;4972992;28;20479;-81
2021/06/21 09:54:03;;;;;;;2.63;0.80;;;24.30;99.90;;;;;;4970671;28;20462;-81
2021/06/21 09:56:43;;;;;;;1.77;1.00;;;24.40;99.90;;;;;;4974318;28;20481;-81
2021/06/21 09:59:19;;;;;;;2.00;1.03;;;24.40;99.90;;;;;;4968533;28;20834;-81
2021/06/21 10:02:04;;;;;;;0.80;0.80;;;24.50;99.90;;;;;;4961366;28;20495;-81
2021/06/21 10:04:34;;;;;;;3.10;1.10;;;24.40;99.90;;;;;;4968483;28;20529;-81
2021/06/21 10:07:03;;;;;;;2.07;1.13;;;24.40;99.90;;;;;;4970312;28;20526;-81
2021/06/21 10:09:31;;;;;;;3.07;1.10;;;24.40;99.90;;;;;;4966754;28;20450;-81
2021/06/21 10:11:59;;;;;;;1.97;0.80;;;24.50;99.90;;;;;;4969096;28;21002;-80
2021/06/21 10:14:28;;;;;;;2.10;1.27;;;24.60;99.90;;;;;;4971248;28;20974;-79
2021/06/21 10:16:57;;;;;;;2.20;0.90;;;24.60;99.90;;;;;;4967133;28;20510;-81
2021/06/21 10:19:26;;;;;;;1.10;1.00;;;24.70;99.90;;;;;;4967159;28;20547;-81
2021/06/21 10:21:58;;;;;;;1.70;0.90;;;24.70;99.90;;;;;;4971651;28;20487;-82
2021/06/21 10:24:31;;;;;;;1.47;1.00;;;24.70;99.90;;;;;;4971352;28;20474;-82
2021/06/21 10:27:00;;;;;;;1.70;1.00;;;24.70;99.90;;;;;;4972641;28;20542;-81
2021/06/21 10:29:28;;;;;;;1.57;1.00;;;24.80;99.90;;;;;;4965693;28;20483;-82
2021/06/21 10:31:58;;;;;;;1.90;1.00;;;24.80;99.90;;;;;;4971881;28;20495;-81
2021/06/21 10:34:27;;;;;;;1.57;1.00;;;25.00;99.90;;;;;;4972539;28;20455;-80
2021/06/21 10:36:58;;;;;;;1.90;0.93;;;25.20;99.90;;;;;;4969966;28;20482;-81
2021/06/21 10:39:28;;;;;;;2.97;1.20;;;25.20;99.90;;;;;;4973217;28;20939;-81
2021/06/21 10:42:17;;;;;;;1.17;0.90;;;25.20;99.90;;;;;;4967647;28;20479;-81
2021/06/21 10:44:52;;;;;;;4.20;1.80;;;25.30;99.90;;;;;;4969218;28;20463;-82
2021/06/21 10:47:35;;;;;;;1.50;1.10;;;25.30;99.90;;;;;;4969558;28;20469;-82
2021/06/21 10:50:10;;;;;;;1.67;1.57;;;25.40;99.90;;;;;;4974314;28;20463;-81
2021/06/21 10:52:42;;;;;;;2.90;1.20;;;25.30;99.90;;;;;;4970679;28;20529;-81
2021/06/21 10:55:35;;;;;;;2.07;1.67;;;25.30;99.90;;;;;;4972358;28;20490;-82
2021/06/21 10:58:05;;;;;;;2.30;1.50;;;25.40;99.90;;;;;;4969752;28;20471;-80
2021/06/21 11:00:35;;;;;;;2.80;2.10;;;25.40;99.90;;;;;;4964948;28;20474;-81
2021/06/21 11:03:25;;;;;;;2.83;1.20;;;25.50;99.90;;;;;;4973064;28;20543;-81
2021/06/21 11:05:56;;;;;;;6.27;1.20;;;25.60;99.90;;;;;;4986401;28;20454;-81
2021/06/21 11:08:27;;;;;;;1.73;1.00;;;25.60;99.90;;;;;;4970170;28;20970;-81
2021/06/21 11:10:57;;;;;;;1.43;1.33;;;25.50;99.90;;;;;;4972965;28;20474;-81
2021/06/21 11:13:41;;;;;;;2.30;0.73;;;25.50;99.90;;;;;;4973251;28;20813;-81
2021/06/21 11:16:21;;;;;;;2.13;1.00;;;25.50;99.90;;;;;;4970822;28;20474;-80
2021/06/21 11:19:11;;;;;;;2.57;1.10;;;25.40;99.90;;;;;;4967832;28;20459;-79
2021/06/21 11:21:46;;;;;;;1.33;1.00;;;25.50;99.90;;;;;;4967832;28;20489;-80
2021/06/21 11:24:52;;;;;;;1.77;1.10;;;25.50;99.90;;;;;;4972224;28;20443;-80
2021/06/21 11:27:27;;;;;;;4.33;1.50;;;25.60;99.90;;;;;;4975835;28;20505;-80
2021/06/21 11:29:57;;;;;;;2.73;0.97;;;25.60;99.90;;;;;;4967366;28;20470;-80
2021/06/21 11:32:26;;;;;;;1.30;0.97;;;25.90;99.90;;;;;;4971106;28;20458;-80
2021/06/21 11:34:56;;;;;;;1.10;0.90;;;25.70;99.90;;;;;;4968368;28;20456;-80
2021/06/21 11:37:37;;;;;;;1.57;0.90;;;25.70;99.90;;;;;;4969818;28;20479;-80
2021/06/21 11:40:28;;;;;;;1.37;0.97;;;25.70;99.90;;;;;;4968198;28;20459;-81
2021/06/21 11:43:16;;;;;;;3.20;1.17;;;25.70;99.90;;;;;;4956987;28;20448;-79
2021/06/21 11:45:55;;;;;;;1.27;0.90;;;25.60;99.90;;;;;;4970762;28;20470;-80
2021/06/21 11:48:26;;;;;;;2.50;1.20;;;25.70;99.90;;;;;;4969669;28;20451;-81
2021/06/21 11:50:55;;;;;;;1.33;1.10;;;25.80;99.90;;;;;;4970772;28;20474;-81
2021/06/21 11:53:25;;;;;;;2.50;0.90;;;25.80;99.90;;;;;;4966660;28;20467;-81
2021/06/21 11:55:55;;;;;;;1.47;1.30;;;25.90;99.90;;;;;;4970053;28;20451;-79
2021/06/21 11:58:29;;;;;;;2.10;0.80;;;25.90;99.90;;;;;;4960403;28;21115;-81
2021/06/21 12:00:57;;;;;;;0.90;0.90;;;25.90;99.90;;;;;;4970797;28;20502;-81
2021/06/21 12:03:36;;;;;;;1.47;0.80;;;26.00;99.90;;;;;;4969508;28;20455;-81
2021/06/21 12:06:06;;;;;;;1.97;1.60;;;26.00;99.90;;;;;;4971207;28;20934;-79
2021/06/21 12:08:36;;;;;;;1.53;0.80;;;26.10;99.90;;;;;;4969434;28;20495;-81
2021/06/21 12:11:21;;;;;;;1.87;1.00;;;26.10;99.90;;;;;;4970098;28;20854;-80
2021/06/21 12:14:01;;;;;;;1.43;1.10;;;26.20;99.90;;;;;;4959287;28;21009;-80
2021/06/21 12:16:31;;;;;;;2.40;1.03;;;26.30;99.90;;;;;;4968422;28;20471;-80
2021/06/21 12:19:01;;;;;;;0.93;0.90;;;26.30;99.90;;;;;;4967512;28;20447;-80
2021/06/21 12:21:33;;;;;;;4.40;0.90;;;26.30;99.90;;;;;;4980857;28;20528;-80
2021/06/21 12:24:20;;;;;;;1.53;1.20;;;26.30;99.90;;;;;;4969083;28;20451;-81
2021/06/21 12:26:51;;;;;;;1.00;0.80;;;26.30;99.90;;;;;;4971581;28;20826;-80
2021/06/21 12:29:26;;;;;;;1.10;1.00;;;26.10;99.90;;;;;;4962940;28;20464;-81
2021/06/21 12:31:59;;;;;;;2.10;0.90;;;26.20;99.90;;;;;;4955924;28;20490;-81
2021/06/21 12:34:41;;;;;;;1.00;0.90;;;26.20;99.90;;;;;;4968276;28;20446;-80
2021/06/21 12:37:18;;;;;;;1.43;1.00;;;26.20;99.90;;;;;;4970569;28;20510;-80
2021/06/21 12:39:49;;;;;;;2.92;1.10;;;26.30;99.90;;;;;;4949167;28;20510;-80
2021/06/21 12:42:19;;;;;;;2.10;1.20;;;26.40;99.90;;;;;;4958024;28;20252;-80
2021/06/21 12:44:49;;;;;;;2.40;1.20;;;26.40;99.90;;;;;;4966506;28;21078;-80
2021/06/21 12:47:20;;;;;;;3.33;1.40;;;26.40;99.90;;;;;;4969717;28;20427;-78
2021/06/21 12:49:50;;;;;;;4.83;1.50;;;26.40;99.90;;;;;;4969859;28;20884;-80
2021/06/21 12:52:20;;;;;;;1.97;1.10;;;26.50;99.90;;;;;;4966946;28;20499;-80
2021/06/21 12:54:55;;;;;;;1.43;1.33;;;26.50;99.90;;;;;;4980169;28;20481;-80
2021/06/21 12:57:25;;;;;;;1.20;1.10;;;26.50;99.90;;;;;;4969073;28;21085;-80
2021/06/21 12:59:53;;;;;;;1.73;0.90;;;26.60;99.90;;;;;;4964491;28;20458;-80
2021/06/21 13:02:25;;;;;;;2.07;1.07;;;26.60;99.90;;;;;;4970637;28;20465;-80
2021/06/21 13:05:03;;;;;;;1.90;1.10;;;26.60;99.90;;;;;;4971002;28;20824;-81
2021/06/21 13:07:32;;;;;;;2.90;1.20;;;26.70;99.90;;;;;;4970424;28;20892;-81
2021/06/21 13:10:22;;;;;;;1.30;1.00;;;26.70;99.90;;;;;;4973001;28;20573;-80
2021/06/21 13:12:56;;;;;;;1.10;1.10;;;26.60;99.90;;;;;;4970135;28;20489;-80
2021/06/21 13:15:25;;;;;;;1.80;1.17;;;26.50;99.90;;;;;;4971842;28;20543;-80